Погода Джалуна неделю

Бенгази, Ливия

02 - 08 сентября
  • 02сентября
    Сегодня
    +24°
    +38°
    Ясно и безоблачно
    ВремяПогодаТемператураВлажностьДавлениеВетер, м/сВероятность осадков
    02:00Ясно и безоблачно+30°C58 %755 мм3.0 м/с0 %
    05:00Ясно и безоблачно+27°C64 %754 мм1.8 м/с0 %
    08:00Ясно и безоблачно+27°C56 %755 мм2.3 м/с0 %
    11:00Ясно и безоблачно+33°C42 %756 мм2.0 м/с0 %
    14:00Ясно и безоблачно+37°C30 %755 мм2.0 м/с0 %
    17:00Ясно и безоблачно+37°C26 %754 мм3.2 м/с0 %
    20:00Ясно и безоблачно+34°C29 %755 мм1.4 м/с0 %
    23:00Ясно и безоблачно+31°C40 %755 мм4.0 м/с0 %
  • 03сентября
    Четверг
    +25°
    +37°
    Ясно и безоблачно
    ВремяПогодаТемператураВлажностьДавлениеВетер, м/сВероятность осадков
    02:00Ясно и безоблачно+29°C55 %755 мм3.7 м/с0 %
    05:00Ясно и безоблачно+26°C59 %755 мм3.0 м/с0 %
    08:00Ясно и безоблачно+26°C61 %755 мм2.4 м/с0 %
    11:00Ясно и безоблачно+32°C45 %756 мм2.9 м/с0 %
    14:00Ясно и безоблачно+35°C32 %755 мм2.3 м/с1 %
    17:00Ясно и безоблачно+36°C27 %754 мм2.8 м/с0 %
    20:00Ясно и безоблачно+34°C31 %754 мм0.4 м/с0 %
    23:00Ясно и безоблачно+32°C48 %755 мм6.0 м/с0 %
  • 04сентября
    Пятница
    +25°
    +38°
    Ясно и безоблачно
    ВремяПогодаТемператураВлажностьДавлениеВетер, м/сВероятность осадков
    02:00Ясно и безоблачно+31°C45 %755 мм4.8 м/с0 %
    05:00Ясно и безоблачно+27°C53 %754 мм1.6 м/с0 %
    08:00Ясно и безоблачно+27°C57 %755 мм1.2 м/с0 %
    11:00Ясно и безоблачно+32°C41 %756 мм1.9 м/с0 %
    14:00Ясно и безоблачно+36°C32 %755 мм1.3 м/с3 %
    17:00Ясно и безоблачно+37°C28 %754 мм1.9 м/с10 %
    20:00Ясно и безоблачно+35°C32 %755 мм1.9 м/с2 %
    23:00Ясно и безоблачно+33°C40 %756 мм3.9 м/с0 %
  • 05сентября
    Суббота
    +24°
    +37°
    Ясно и безоблачно
    ВремяПогодаТемператураВлажностьДавлениеВетер, м/сВероятность осадков
    02:00Ясно и безоблачно+30°C50 %755 мм2.9 м/с0 %
    05:00Ясно и безоблачно+27°C57 %756 мм1.8 м/с0 %
    08:00Ясно и безоблачно+27°C56 %757 мм1.6 м/с0 %
    11:00Ясно и безоблачно+33°C42 %758 мм1.6 м/с0 %
    14:00Ясно и безоблачно+36°C29 %757 мм1.4 м/с0 %
    17:00Ясно и безоблачно+37°C26 %756 мм2.5 м/с0 %
    20:00Ясно и безоблачно+34°C29 %757 мм0.9 м/с0 %
    23:00Ясно и безоблачно+31°C32 %758 мм2.8 м/с0 %
  • 06сентября
    Воскресенье
    +24°
    +37°
    Ясно и безоблачно
    ВремяПогодаТемператураВлажностьДавлениеВетер, м/сВероятность осадков
    02:00Ясно и безоблачно+29°C41 %758 мм1.9 м/с0 %
    05:00Ясно и безоблачно+26°C54 %758 мм1.6 м/с0 %
    08:00Ясно и безоблачно+26°C55 %760 мм0.6 м/с0 %
    11:00Ясно и безоблачно+32°C39 %760 мм1.7 м/с0 %
    14:00Ясно и безоблачно+35°C30 %759 мм2.3 м/с0 %
    17:00Ясно и безоблачно+36°C26 %758 мм3.4 м/с0 %
    20:00Ясно и безоблачно+33°C31 %758 мм0.9 м/с0 %
    23:00Ясно и безоблачно+30°C38 %759 мм3.6 м/с0 %
  • 07сентября
    Понедельник
    +23°
    +37°
    Ясно и безоблачно
    ВремяПогодаТемператураВлажностьДавлениеВетер, м/сВероятность осадков
    02:00Ясно и безоблачно+29°C51 %758 мм3.3 м/с0 %
    08:00Ясно и безоблачно+26°C62 %759 мм0.8 м/с0 %
    14:00Ясно и безоблачно+35°C33 %758 мм1.3 м/с0 %
    20:00Ясно и безоблачно+34°C34 %757 мм0.9 м/с0 %
  • 08сентября
    Вторник
    +24°
    +36°
    Ясно и безоблачно
    ВремяПогодаТемператураВлажностьДавлениеВетер, м/сВероятность осадков
    02:00Ясно и безоблачно+28°C66 %757 мм3.6 м/с0 %
    08:00Ясно и безоблачно+25°C64 %757 мм3.0 м/с0 %
    14:00Ясно и безоблачно+36°C24 %756 мм3.4 м/с0 %
    20:00Ясно и безоблачно+33°C26 %755 мм3.0 м/с0 %
Мы используем cookies
Соглашаюсь